Time;durP1;ratioP1;P1;durP2;ratioP2;P2;SDS_P1;SDS_P2;PMS_P1;PMS_P2;Temp;Humidity;BMP_temperature;BMP_pressure;BME280_temperature;BME280_humidity;BME280_pressure;Samples;Min_cycle;Max_cycle;Signal;HPM_P1;HPM_P2
2023/05/03 00:00:47;;;;;;;13.65;4.50;;;;;;;5.65;100.00;102709.88;5123555;27;20034;-67
2023/05/03 00:03:13;;;;;;;14.85;4.20;;;;;;;5.50;100.00;102709.03;5121057;27;20027;-68
2023/05/03 00:05:38;;;;;;;15.32;4.47;;;;;;;5.35;100.00;102706.47;5123309;27;20028;-67
2023/05/03 00:08:04;;;;;;;16.80;4.63;;;;;;;5.33;100.00;102706.38;5125437;27;20023;-68
2023/05/03 00:10:30;;;;;;;15.95;4.43;;;;;;;5.36;100.00;102710.91;5121482;27;20433;-67
2023/05/03 00:12:55;;;;;;;14.82;4.68;;;;;;;5.30;100.00;102706.22;5125120;27;20074;-67
2023/05/03 00:15:21;;;;;;;17.58;4.95;;;;;;;5.33;100.00;102709.00;5122956;27;20027;-68
2023/05/03 00:17:46;;;;;;;13.93;4.38;;;;;;;5.31;100.00;102701.88;5124038;27;20032;-67
2023/05/03 00:20:11;;;;;;;16.45;4.78;;;;;;;5.23;100.00;102710.22;5124255;27;20023;-67
2023/05/03 00:22:37;;;;;;;16.30;4.70;;;;;;;5.23;100.00;102704.97;5122687;27;20032;-69
2023/05/03 00:25:03;;;;;;;15.02;4.68;;;;;;;5.20;100.00;102712.66;5125469;27;20031;-67
2023/05/03 00:27:29;;;;;;;18.63;4.93;;;;;;;5.20;100.00;102710.03;5121868;27;20502;-67
2023/05/03 00:29:54;;;;;;;16.20;4.50;;;;;;;5.15;100.00;102703.63;5124831;27;20113;-68
2023/05/03 00:32:21;;;;;;;16.20;4.80;;;;;;;5.12;100.00;102711.31;5122858;27;20031;-67
2023/05/03 00:34:55;;;;;;;16.35;5.00;;;;;;;5.13;100.00;102723.63;5123532;27;20051;-68
2023/05/03 00:37:20;;;;;;;17.48;5.00;;;;;;;5.05;100.00;102711.78;5122725;27;20142;-67
2023/05/03 00:39:46;;;;;;;15.30;4.68;;;;;;;5.07;100.00;102711.06;5123132;27;20546;-72
2023/05/03 00:42:11;;;;;;;15.65;5.00;;;;;;;4.99;100.00;102708.81;5123375;27;20031;-67
2023/05/03 00:44:36;;;;;;;15.38;4.90;;;;;;;4.96;100.00;102713.91;5124204;27;20049;-68
2023/05/03 00:47:02;;;;;;;17.08;5.00;;;;;;;5.00;100.00;102715.88;5121955;27;20035;-67
2023/05/03 00:49:28;;;;;;;16.65;5.10;;;;;;;4.84;100.00;102717.63;5125253;27;20108;-67
2023/05/03 00:51:53;;;;;;;17.70;5.00;;;;;;;4.86;100.00;102715.06;5121579;27;20047;-68
2023/05/03 00:54:19;;;;;;;16.80;4.80;;;;;;;4.81;100.00;102712.19;5124240;28;20384;-71
2023/05/03 00:56:45;;;;;;;17.52;5.30;;;;;;;4.76;100.00;102716.28;5121414;28;20029;-67
2023/05/03 00:59:11;;;;;;;15.40;4.88;;;;;;;4.75;100.00;102708.31;5123274;28;20066;-67
2023/05/03 01:01:36;;;;;;;20.15;5.10;;;;;;;4.68;100.00;102709.69;5123827;27;20115;-68
2023/05/03 01:04:03;;;;;;;15.73;4.65;;;;;;;4.67;100.00;102703.53;5121254;27;20035;-67
2023/05/03 01:07:02;;;;;;;17.63;5.20;;;;;;;4.73;100.00;102705.59;5123777;27;20122;-67
2023/05/03 01:09:58;;;;;;;15.80;4.65;;;;;;;4.75;100.00;102704.00;5122338;28;20035;-68
2023/05/03 01:12:32;;;;;;;17.98;5.00;;;;;;;4.70;100.00;102703.72;5121606;28;20019;-69
2023/05/03 01:15:06;;;;;;;17.63;5.00;;;;;;;4.63;100.00;102708.50;5123781;27;20035;-68
2023/05/03 01:17:44;;;;;;;16.38;5.10;;;;;;;4.48;100.00;102709.41;5122850;28;20069;-68
2023/05/03 01:20:12;;;;;;;16.80;5.05;;;;;;;4.43;100.00;102715.22;5122162;27;20019;-67
2023/05/03 01:22:56;;;;;;;17.30;5.15;;;;;;;4.32;100.00;102710.22;5126943;27;20046;-67
2023/05/03 01:25:22;;;;;;;17.67;5.18;;;;;;;4.31;100.00;102705.81;5125488;27;20032;-67
2023/05/03 01:27:47;;;;;;;17.25;5.20;;;;;;;4.24;100.00;102721.03;5128802;27;20504;-67
2023/05/03 01:30:13;;;;;;;17.85;5.38;;;;;;;4.16;100.00;102716.25;5125823;27;20086;-67
2023/05/03 01:33:08;;;;;;;18.83;5.57;;;;;;;4.17;100.00;102722.41;5127568;27;20027;-68
2023/05/03 01:35:43;;;;;;;16.80;5.30;;;;;;;4.13;100.00;102720.41;5119534;27;20439;-68
2023/05/03 01:38:09;;;;;;;17.40;5.50;;;;;;;4.13;100.00;102715.16;5127399;27;20470;-68
2023/05/03 01:40:50;;;;;;;16.67;5.28;;;;;;;4.03;100.00;102723.28;5126535;27;20080;-71
2023/05/03 01:43:16;;;;;;;18.15;5.68;;;;;;;3.97;100.00;102724.69;5128604;27;20023;-67
2023/05/03 01:45:42;;;;;;;19.63;5.78;;;;;;;3.87;100.00;102724.03;5125449;27;20027;-67
2023/05/03 01:48:10;;;;;;;18.33;5.53;;;;;;;3.80;100.00;102718.44;5127214;27;20031;-67
2023/05/03 01:50:35;;;;;;;17.75;5.43;;;;;;;3.86;100.00;102719.59;5126620;27;20019;-67
2023/05/03 01:53:00;;;;;;;19.35;5.75;;;;;;;3.91;100.00;102723.44;5126119;27;20032;-67
2023/05/03 01:55:26;;;;;;;17.75;5.90;;;;;;;3.96;100.00;102721.97;5127620;27;20058;-68
2023/05/03 01:57:51;;;;;;;19.77;5.90;;;;;;;3.99;100.00;102722.16;5124845;27;20034;-69
2023/05/03 02:00:16;;;;;;;18.10;6.03;;;;;;;3.97;100.00;102723.78;5128247;27;20073;-67
2023/05/03 02:02:42;;;;;;;17.85;5.70;;;;;;;3.95;100.00;102720.19;5122086;27;20559;-69
2023/05/03 02:05:08;;;;;;;18.60;5.88;;;;;;;3.91;100.00;102724.31;5128207;27;20479;-67
2023/05/03 02:07:33;;;;;;;18.63;5.70;;;;;;;3.89;100.00;102727.66;5124709;27;20032;-67
2023/05/03 02:09:59;;;;;;;18.52;6.07;;;;;;;3.80;100.00;102714.91;5126996;27;20024;-71
2023/05/03 02:12:24;;;;;;;19.38;5.85;;;;;;;3.82;100.00;102722.03;5125993;27;20385;-70
2023/05/03 02:14:50;;;;;;;18.77;6.18;;;;;;;3.80;100.00;102725.38;5125858;27;20052;-68
2023/05/03 02:17:17;;;;;;;17.95;5.60;;;;;;;3.81;100.00;102720.22;5127578;27;20102;-66
2023/05/03 02:19:43;;;;;;;17.92;5.70;;;;;;;3.74;100.00;102715.44;5124623;27;20028;-67
2023/05/03 02:22:08;;;;;;;17.98;5.75;;;;;;;3.80;100.00;102710.59;5127847;27;20035;-67
2023/05/03 02:24:35;;;;;;;18.27;6.03;;;;;;;3.79;100.00;102719.25;5124675;27;20020;-71
2023/05/03 02:27:03;;;;;;;18.90;6.05;;;;;;;3.79;100.00;102711.38;5126896;27;20531;-70
2023/05/03 02:29:29;;;;;;;18.40;6.03;;;;;;;3.74;100.00;102709.28;5125447;27;20018;-70
2023/05/03 02:31:55;;;;;;;19.65;6.30;;;;;;;3.78;100.00;102706.97;5125862;27;20405;-68
2023/05/03 02:34:20;;;;;;;20.00;6.43;;;;;;;3.79;100.00;102693.06;5125374;27;20104;-70
2023/05/03 02:36:45;;;;;;;18.48;5.63;;;;;;;3.76;100.00;102700.75;5124589;27;20023;-73
2023/05/03 02:39:11;;;;;;;17.60;5.85;;;;;;;3.79;100.00;102689.56;5127720;27;20486;-75
2023/05/03 02:41:36;;;;;;;18.58;6.07;;;;;;;3.67;100.00;102684.50;5123927;27;20031;-74
2023/05/03 02:44:01;;;;;;;19.85;6.43;;;;;;;3.67;100.00;102687.09;5126472;27;20031;-73
2023/05/03 02:46:27;;;;;;;19.20;6.45;;;;;;;3.70;100.00;102684.69;5125298;27;20042;-75
2023/05/03 02:48:52;;;;;;;20.75;6.55;;;;;;;3.61;100.00;102678.84;5125145;27;20028;-73
2023/05/03 02:51:17;;;;;;;18.35;6.03;;;;;;;3.61;100.00;102668.38;5126364;27;20035;-75
2023/05/03 02:53:43;;;;;;;19.27;6.30;;;;;;;3.54;100.00;102668.81;5124046;27;20054;-73
2023/05/03 02:56:08;;;;;;;21.45;6.80;;;;;;;3.48;100.00;102664.09;5127153;27;20031;-70
2023/05/03 02:58:34;;;;;;;18.30;6.60;;;;;;;3.41;100.00;102662.84;5124163;27;20108;-68
2023/05/03 03:00:59;;;;;;;18.67;6.68;;;;;;;3.43;100.00;102665.53;5125017;27;20035;-68
2023/05/03 03:03:25;;;;;;;20.83;6.72;;;;;;;3.48;100.00;102654.56;5123642;27;20046;-67
2023/05/03 03:05:50;;;;;;;18.23;6.53;;;;;;;3.43;100.00;102670.78;5125744;27;20028;-68
2023/05/03 03:08:17;;;;;;;20.02;6.68;;;;;;;3.48;100.00;102672.88;5125680;27;20114;-69
2023/05/03 03:10:42;;;;;;;19.65;6.60;;;;;;;3.44;100.00;102676.09;5124291;27;20421;-67
2023/05/03 03:13:07;;;;;;;19.38;6.80;;;;;;;3.49;100.00;102686.84;5126482;27;20023;-67
2023/05/03 03:15:33;;;;;;;18.50;6.50;;;;;;;3.45;100.00;102680.53;5123121;27;20063;-68
2023/05/03 03:17:58;;;;;;;22.05;7.00;;;;;;;3.42;100.00;102690.81;5126398;27;20466;-67
2023/05/03 03:20:24;;;;;;;19.80;6.85;;;;;;;3.42;100.00;102679.41;5124184;27;20025;-67
2023/05/03 03:22:49;;;;;;;20.90;7.13;;;;;;;3.41;100.00;102673.28;5125013;27;20027;-68
2023/05/03 03:25:14;;;;;;;19.55;7.07;;;;;;;3.39;100.00;102684.47;5125319;27;20481;-67
2023/05/03 03:27:40;;;;;;;19.58;7.10;;;;;;;3.38;100.00;102683.56;5123825;27;20047;-67
2023/05/03 03:30:06;;;;;;;19.88;6.78;;;;;;;3.42;100.00;102701.25;5126838;27;20106;-68
2023/05/03 03:32:32;;;;;;;20.50;7.30;;;;;;;3.44;100.00;102704.84;5122993;27;20445;-67
2023/05/03 03:34:57;;;;;;;20.48;7.47;;;;;;;3.41;100.00;102696.81;5125891;27;20053;-67
2023/05/03 03:37:22;;;;;;;21.23;7.75;;;;;;;3.42;100.00;102685.56;5122744;27;20053;-67
2023/05/03 03:39:48;;;;;;;20.27;7.40;;;;;;;3.34;100.00;102686.78;5125164;27;20035;-68
2023/05/03 03:42:14;;;;;;;19.92;7.72;;;;;;;3.26;100.00;102690.63;5124707;27;20110;-67
2023/05/03 03:44:39;;;;;;;21.13;7.22;;;;;;;3.17;100.00;102671.75;5123512;27;20035;-68
2023/05/03 03:47:05;;;;;;;20.92;7.65;;;;;;;3.17;100.00;102687.44;5125559;27;20055;-68
2023/05/03 03:49:30;;;;;;;22.48;7.78;;;;;;;3.14;100.00;102683.78;5122848;27;20052;-67
2023/05/03 03:51:55;;;;;;;20.95;7.50;;;;;;;3.07;100.00;102680.69;5125890;27;20027;-67
2023/05/03 03:54:21;;;;;;;19.70;7.82;;;;;;;3.04;100.00;102673.56;5123274;27;20061;-67
2023/05/03 03:56:46;;;;;;;20.67;7.65;;;;;;;3.01;100.00;102673.38;5124634;27;20055;-69
2023/05/03 03:59:12;;;;;;;20.02;7.60;;;;;;;3.00;100.00;102683.72;5124443;27;20027;-67
2023/05/03 04:01:37;;;;;;;21.45;7.85;;;;;;;2.98;100.00;102691.47;5123451;27;20085;-67
2023/05/03 04:04:03;;;;;;;20.05;7.75;;;;;;;3.00;100.00;102700.31;5124651;27;20011;-68
2023/05/03 04:06:28;;;;;;;20.25;7.82;;;;;;;3.03;100.00;102699.59;5123417;27;20040;-68
2023/05/03 04:08:54;;;;;;;22.58;8.18;;;;;;;3.01;100.00;102696.88;5125935;27;20114;-67
2023/05/03 04:11:22;;;;;;;22.08;7.75;;;;;;;3.00;100.00;102696.78;5122051;27;20027;-68
2023/05/03 04:13:48;;;;;;;21.80;8.07;;;;;;;2.98;100.00;102691.47;5122273;27;20040;-67
2023/05/03 04:16:14;;;;;;;20.02;8.10;;;;;;;3.02;100.00;102701.31;5125277;27;20022;-67
2023/05/03 04:18:40;;;;;;;22.30;8.00;;;;;;;2.99;100.00;102703.72;5122929;27;20457;-67
2023/05/03 04:21:05;;;;;;;21.23;8.25;;;;;;;2.90;100.00;102703.16;5123938;27;20054;-67
2023/05/03 04:23:31;;;;;;;20.65;8.20;;;;;;;2.99;100.00;102702.84;5124359;27;20478;-67
2023/05/03 04:25:56;;;;;;;20.85;8.30;;;;;;;3.04;100.00;102702.31;5122564;27;20038;-67
2023/05/03 04:28:22;;;;;;;22.50;8.02;;;;;;;3.02;100.00;102693.47;5125235;27;20478;-68
2023/05/03 04:30:48;;;;;;;20.90;8.30;;;;;;;3.02;100.00;102697.81;5121979;27;20110;-68
2023/05/03 04:33:14;;;;;;;21.98;8.63;;;;;;;2.97;100.00;102702.69;5124675;27;20054;-67
2023/05/03 04:35:40;;;;;;;20.70;8.35;;;;;;;3.02;100.00;102706.53;5122673;27;20397;-71
2023/05/03 04:38:05;;;;;;;21.67;8.55;;;;;;;3.04;100.00;102712.75;5123840;27;20039;-67
2023/05/03 04:40:31;;;;;;;21.40;8.48;;;;;;;3.08;100.00;102714.75;5123862;27;20019;-68
2023/05/03 04:42:56;;;;;;;22.52;8.60;;;;;;;3.09;100.00;102719.19;5122407;27;20023;-68
2023/05/03 04:45:22;;;;;;;21.23;8.85;;;;;;;3.12;100.00;102727.22;5125448;27;20054;-67
2023/05/03 04:47:48;;;;;;;20.60;8.45;;;;;;;3.13;100.00;102733.34;5121487;27;20528;-67
2023/05/03 04:50:13;;;;;;;24.48;8.77;;;;;;;3.21;100.00;102739.09;5124633;27;20146;-67
2023/05/03 04:52:39;;;;;;;23.13;8.50;;;;;;;3.27;100.00;102749.94;5122492;27;20030;-67
2023/05/03 04:55:05;;;;;;;23.20;9.05;;;;;;;3.35;100.00;102748.75;5123292;28;20031;-67
2023/05/03 04:57:31;;;;;;;21.73;8.60;;;;;;;3.44;100.00;102749.31;5123550;27;20440;-68
2023/05/03 04:59:56;;;;;;;21.33;8.75;;;;;;;3.47;100.00;102756.47;5122016;28;20501;-68
2023/05/03 05:02:22;;;;;;;22.33;8.60;;;;;;;3.58;100.00;102764.97;5124125;27;20035;-67
2023/05/03 05:04:47;;;;;;;21.55;8.30;;;;;;;3.63;100.00;102774.91;5121940;27;20351;-66
2023/05/03 05:07:13;;;;;;;22.75;8.38;;;;;;;3.70;100.00;102764.84;5121915;28;20024;-70
2023/05/03 05:09:38;;;;;;;21.88;8.25;;;;;;;3.79;100.00;102765.44;5124936;27;20419;-70
2023/05/03 05:12:04;;;;;;;20.25;8.30;;;;;;;3.87;100.00;102774.66;5121510;27;20035;-66
2023/05/03 05:14:30;;;;;;;22.65;8.48;;;;;;;3.96;100.00;102764.78;5109412;28;20031;-68
2023/05/03 05:16:56;;;;;;;22.10;8.60;;;;;;;4.02;100.00;102761.63;5122559;27;20351;-72
2023/05/03 05:19:22;;;;;;;21.67;8.15;;;;;;;4.08;100.00;102759.41;5123186;28;20110;-73
2023/05/03 05:21:47;;;;;;;23.58;8.82;;;;;;;4.12;100.00;102765.69;5123894;27;20098;-75
2023/05/03 05:24:12;;;;;;;21.42;8.23;;;;;;;4.17;100.00;102764.28;5121844;28;20469;-71
2023/05/03 05:26:38;;;;;;;21.08;8.00;;;;;;;4.26;100.00;102764.84;5124728;27;20081;-75
2023/05/03 05:29:04;;;;;;;21.00;7.78;;;;;;;4.30;100.00;102764.22;5121304;27;20035;-72
2023/05/03 05:31:30;;;;;;;21.20;8.15;;;;;;;4.35;100.00;102759.25;5124447;28;20085;-74
2023/05/03 05:33:55;;;;;;;20.27;8.20;;;;;;;4.43;100.00;102759.75;5122298;27;20493;-67
2023/05/03 05:36:20;;;;;;;22.52;8.18;;;;;;;4.48;100.00;102769.66;5121284;28;20047;-67
2023/05/03 05:38:46;;;;;;;21.30;8.35;;;;;;;4.57;100.00;102761.44;5124114;27;20386;-68
2023/05/03 05:41:11;;;;;;;22.60;8.00;;;;;;;4.65;100.00;102754.06;5121263;28;20032;-68
2023/05/03 05:43:36;;;;;;;21.73;8.00;;;;;;;4.70;100.00;102763.06;5124593;27;20031;-68
2023/05/03 05:46:02;;;;;;;20.00;8.02;;;;;;;4.74;100.00;102754.59;5121598;27;20039;-68
2023/05/03 05:48:27;;;;;;;21.83;8.45;;;;;;;4.77;100.00;102764.34;5123539;28;20039;-67
2023/05/03 05:50:53;;;;;;;21.90;7.85;;;;;;;4.81;100.00;102767.22;5122234;27;20030;-67
2023/05/03 05:53:18;;;;;;;23.00;8.40;;;;;;;4.91;100.00;102767.75;5124935;28;20031;-68
2023/05/03 05:55:43;;;;;;;19.88;8.13;;;;;;;4.96;100.00;102767.22;5131524;27;20117;-68
2023/05/03 05:58:11;;;;;;;22.20;8.07;;;;;;;4.98;100.00;102772.53;5131515;27;20019;-78
2023/05/03 06:00:37;;;;;;;22.40;8.32;;;;;;;5.04;100.00;102776.44;5132122;28;20039;-69
2023/05/03 06:03:02;;;;;;;20.30;8.10;;;;;;;5.12;100.00;102774.25;5130409;27;20063;-68
2023/05/03 06:05:28;;;;;;;20.88;8.00;;;;;;;5.21;100.00;102768.63;5130218;28;20394;-67
2023/05/03 06:07:53;;;;;;;20.35;8.00;;;;;;;5.27;100.00;102769.00;5130485;27;20039;-70
2023/05/03 06:10:18;;;;;;;20.60;8.00;;;;;;;5.30;100.00;102773.47;5135330;27;20075;-70
2023/05/03 06:12:44;;;;;;;22.23;8.15;;;;;;;5.39;100.00;102768.78;5135749;27;20061;-67
2023/05/03 06:15:09;;;;;;;21.35;7.85;;;;;;;5.46;100.00;102767.38;5135736;27;20026;-68
2023/05/03 06:17:35;;;;;;;21.85;8.38;;;;;;;5.52;100.00;102759.84;5135099;27;20034;-68
2023/05/03 06:20:00;;;;;;;21.95;8.90;;;;;;;5.62;100.00;102763.91;5135418;27;20032;-69
2023/05/03 06:22:26;;;;;;;20.80;8.02;;;;;;;5.66;100.00;102752.75;5135413;27;20036;-68
2023/05/03 06:24:51;;;;;;;20.85;8.45;;;;;;;5.71;100.00;102762.69;5136639;27;20027;-68
2023/05/03 06:27:17;;;;;;;23.10;8.60;;;;;;;5.83;100.00;102754.56;5135480;27;20030;-70
2023/05/03 06:29:46;;;;;;;20.92;8.43;;;;;;;5.87;100.00;102759.19;5132497;27;20503;-68
2023/05/03 06:32:12;;;;;;;21.02;8.20;;;;;;;5.93;100.00;102764.75;5134582;27;20043;-68
2023/05/03 06:34:38;;;;;;;21.55;8.40;;;;;;;6.03;100.00;102762.66;5135115;27;20054;-68
2023/05/03 06:37:03;;;;;;;21.60;8.65;;;;;;;6.11;100.00;102754.34;5135246;27;20028;-68
2023/05/03 06:39:30;;;;;;;21.58;8.10;;;;;;;6.16;100.00;102757.25;5132777;27;20069;-69
2023/05/03 06:41:55;;;;;;;21.08;8.02;;;;;;;6.23;100.00;102758.44;5133979;27;20027;-69
2023/05/03 06:44:20;;;;;;;21.38;8.35;;;;;;;6.31;100.00;102751.88;5135158;27;20394;-69
2023/05/03 06:46:46;;;;;;;20.40;8.30;;;;;;;6.39;100.00;102749.66;5135028;27;20019;-69
2023/05/03 06:49:11;;;;;;;22.50;7.93;;;;;;;6.45;100.00;102753.50;5135084;27;20462;-65
2023/05/03 06:51:37;;;;;;;20.75;7.82;;;;;;;6.50;100.00;102745.84;5134772;27;20060;-68
2023/05/03 06:54:08;;;;;;;21.33;7.85;;;;;;;6.56;100.00;102738.28;5135226;27;20057;-67
2023/05/03 06:56:34;;;;;;;19.98;7.75;;;;;;;6.64;100.00;102738.69;5134796;27;20027;-69
2023/05/03 06:59:02;;;;;;;19.77;7.63;;;;;;;6.72;100.00;102739.97;5134892;27;20079;-68
2023/05/03 07:01:28;;;;;;;20.40;7.75;;;;;;;6.82;100.00;102736.06;5132405;27;20035;-67
2023/05/03 07:03:53;;;;;;;21.35;8.05;;;;;;;6.89;100.00;102740.81;5134543;27;20034;-68
2023/05/03 07:06:21;;;;;;;21.13;7.57;;;;;;;6.94;100.00;102747.19;5134522;27;20064;-68
2023/05/03 07:08:47;;;;;;;19.52;7.65;;;;;;;7.07;100.00;102748.69;5134585;27;20028;-69
2023/05/03 07:11:12;;;;;;;19.55;7.07;;;;;;;7.10;100.00;102746.22;5134576;27;20038;-69
2023/05/03 07:13:37;;;;;;;20.00;7.25;;;;;;;7.18;100.00;102746.63;5132923;27;20517;-69
2023/05/03 07:16:03;;;;;;;21.17;7.70;;;;;;;7.31;100.00;102745.44;5131968;27;20039;-69
2023/05/03 07:18:29;;;;;;;21.92;7.53;;;;;;;7.36;100.00;102743.94;5124755;27;20358;-70
2023/05/03 07:20:55;;;;;;;21.45;7.88;;;;;;;7.41;100.00;102749.44;5120645;27;20165;-68
2023/05/03 07:23:21;;;;;;;20.60;7.43;;;;;;;7.52;100.00;102750.84;5123282;27;20061;-68
2023/05/03 07:25:46;;;;;;;21.40;7.40;;;;;;;7.60;100.00;102746.84;5123786;27;20058;-68
2023/05/03 07:28:12;;;;;;;21.13;7.90;;;;;;;7.71;100.00;102749.09;5128391;27;20082;-67
2023/05/03 07:30:37;;;;;;;20.92;7.78;;;;;;;7.82;100.00;102747.81;5134001;27;20066;-69
2023/05/03 07:33:03;;;;;;;20.73;7.80;;;;;;;7.92;100.00;102742.19;5134256;27;20027;-68
2023/05/03 07:35:28;;;;;;;20.35;7.80;;;;;;;7.96;100.00;102736.19;5133752;27;20460;-67
2023/05/03 07:37:53;;;;;;;20.60;7.70;;;;;;;8.01;100.00;102739.94;5133508;27;20038;-68
2023/05/03 07:40:19;;;;;;;20.48;7.78;;;;;;;8.01;100.00;102733.78;5133063;27;20034;-67
2023/05/03 07:42:45;;;;;;;19.45;7.35;;;;;;;8.05;100.00;102724.28;5133851;27;20038;-67
2023/05/03 07:45:10;;;;;;;20.40;7.32;;;;;;;8.12;100.00;102727.25;5133978;27;20027;-67
2023/05/03 07:47:38;;;;;;;21.33;7.88;;;;;;;8.26;100.00;102725.22;5132373;27;20027;-67
2023/05/03 07:50:04;;;;;;;20.80;7.70;;;;;;;8.40;100.00;102724.94;5133100;27;20027;-68
2023/05/03 07:52:37;;;;;;;21.00;7.60;;;;;;;8.50;100.00;102719.25;5134021;27;20114;-67
2023/05/03 07:55:02;;;;;;;21.10;7.10;;;;;;;8.58;100.00;102715.22;5133257;27;20038;-67
2023/05/03 07:57:28;;;;;;;20.65;7.35;;;;;;;8.72;100.00;102714.06;5133251;27;20394;-67
2023/05/03 07:59:54;;;;;;;18.98;6.53;;;;;;;8.83;93.19;102701.31;5133631;27;20109;-68
2023/05/03 08:02:20;;;;;;;18.23;6.28;;;;;;;8.90;87.23;102692.81;5132148;27;20423;-67
2023/05/03 08:04:46;;;;;;;18.40;6.07;;;;;;;8.94;82.89;102692.94;5133740;27;20050;-67
2023/05/03 08:07:11;;;;;;;18.80;6.13;;;;;;;9.07;83.14;102693.50;5133755;27;20473;-67
2023/05/03 08:09:37;;;;;;;18.40;6.20;;;;;;;9.07;80.44;102688.22;5131073;27;20062;-67
2023/05/03 08:12:02;;;;;;;18.10;5.93;;;;;;;9.20;80.39;102683.41;5122535;27;20102;-67
2023/05/03 08:14:27;;;;;;;19.25;5.90;;;;;;;9.34;78.27;102682.22;5125720;27;20038;-68
2023/05/03 08:16:53;;;;;;;17.88;5.50;;;;;;;9.70;76.31;102676.53;5122371;27;20483;-67
2023/05/03 08:19:18;;;;;;;19.15;5.82;;;;;;;10.30;72.58;102681.31;5124807;27;20032;-67
2023/05/03 08:21:45;;;;;;;19.45;5.47;;;;;;;11.07;69.18;102679.47;5123811;27;20019;-68
2023/05/03 08:24:12;;;;;;;17.17;5.38;;;;;;;11.43;64.87;102684.06;5122270;27;20359;-67
2023/05/03 08:26:39;;;;;;;19.98;5.90;;;;;;;11.82;62.59;102688.72;5124413;27;20019;-67
2023/05/03 08:29:04;;;;;;;18.65;5.20;;;;;;;12.28;60.16;102686.50;5122662;27;20077;-67
2023/05/03 08:31:30;;;;;;;16.95;5.32;;;;;;;12.68;57.62;102672.50;5124566;27;20027;-68
2023/05/03 08:33:55;;;;;;;17.63;5.50;;;;;;;12.88;56.86;102674.72;5121992;27;20027;-68
2023/05/03 08:36:21;;;;;;;17.63;5.57;;;;;;;13.16;56.55;102681.56;5124458;27;20043;-67
2023/05/03 08:38:47;;;;;;;17.05;5.38;;;;;;;13.51;56.02;102676.16;5122828;27;20055;-68
2023/05/03 08:41:27;;;;;;;17.10;5.25;;;;;;;13.77;57.24;102675.81;5123386;27;20486;-67
2023/05/03 08:43:54;;;;;;;16.63;5.43;;;;;;;13.71;56.10;102667.72;5122159;27;20031;-70
2023/05/03 08:46:20;;;;;;;16.45;5.22;;;;;;;13.87;53.92;102674.25;5124344;27;20031;-68
2023/05/03 08:48:50;;;;;;;16.25;5.28;;;;;;;14.53;52.73;102670.13;5123059;27;20027;-68
2023/05/03 08:51:17;;;;;;;17.90;5.28;;;;;;;14.95;50.70;102674.38;5122523;27;20024;-67
2023/05/03 08:53:42;;;;;;;16.48;5.00;;;;;;;14.77;48.59;102671.44;5123288;27;20031;-67
2023/05/03 08:56:09;;;;;;;15.88;5.20;;;;;;;14.79;51.25;102678.59;5122464;28;20031;-67
2023/05/03 08:58:36;;;;;;;16.80;5.00;;;;;;;15.23;49.57;102688.13;5124678;27;20069;-67
2023/05/03 09:01:05;;;;;;;17.45;5.35;;;;;;;15.35;48.93;102687.41;5121622;28;20024;-68
2023/05/03 09:03:32;;;;;;;16.20;5.10;;;;;;;14.98;47.55;102690.44;5124906;27;20031;-67
2023/05/03 09:06:00;;;;;;;17.25;5.07;;;;;;;14.72;47.64;102684.69;5121658;28;20027;-73
2023/05/03 09:08:27;;;;;;;18.33;5.25;;;;;;;13.67;48.90;102684.47;5121318;28;20486;-70
2023/05/03 09:10:52;;;;;;;17.20;5.40;;;;;;;13.35;52.13;102682.03;5124378;28;20160;-70
2023/05/03 09:13:18;;;;;;;17.15;5.28;;;;;;;13.47;50.90;102684.97;5122487;27;20520;-75
2023/05/03 09:15:52;;;;;;;17.15;5.60;;;;;;;14.26;49.53;102686.50;5123136;28;20035;-69
2023/05/03 09:18:19;;;;;;;16.23;5.20;;;;;;;15.60;47.10;102685.06;5122397;27;20052;-70
2023/05/03 09:20:52;;;;;;;17.48;5.32;;;;;;;16.27;46.81;102676.94;5123374;28;20034;-72
2023/05/03 09:23:27;;;;;;;17.15;5.20;;;;;;;16.28;44.50;102686.75;5122531;27;20105;-71
2023/05/03 09:25:53;;;;;;;17.00;5.40;;;;;;;15.86;44.03;102688.06;5123887;28;20064;-73
2023/05/03 09:28:19;;;;;;;18.75;5.30;;;;;;;16.99;44.77;102681.09;5132394;27;20076;-79
2023/05/03 09:30:46;;;;;;;15.63;5.13;;;;;;;17.82;41.84;102685.97;5132654;27;20114;-77
2023/05/03 09:33:18;;;;;;;16.50;4.82;;;;;;;18.46;40.52;102679.88;5132374;27;20035;-80
2023/05/03 09:36:00;;;;;;;17.10;5.30;;;;;;;18.63;40.95;102674.53;5132542;27;20130;-79
2023/05/03 09:38:28;;;;;;;17.92;5.13;;;;;;;18.86;38.69;102673.59;5131693;27;20052;-80
2023/05/03 09:40:53;;;;;;;17.10;5.10;;;;;;;19.61;37.82;102676.09;5131047;28;20020;-71
2023/05/03 09:43:18;;;;;;;15.98;4.90;;;;;;;20.32;36.75;102682.88;5134831;27;20082;-68
2023/05/03 09:45:44;;;;;;;17.60;5.10;;;;;;;20.73;34.28;102677.19;5135748;27;20382;-67
2023/05/03 09:48:10;;;;;;;15.52;4.97;;;;;;;20.18;35.18;102670.47;5133974;27;20412;-69
2023/05/03 09:50:36;;;;;;;15.23;4.93;;;;;;;20.08;36.21;102660.69;5136455;27;20035;-68
2023/05/03 09:53:04;;;;;;;16.30;5.10;;;;;;;19.73;35.39;102667.13;5135217;27;20438;-70
2023/05/03 09:55:33;;;;;;;14.85;5.03;;;;;;;19.78;36.37;102662.66;5136475;27;20055;-68
2023/05/03 09:57:59;;;;;;;17.40;5.20;;;;;;;19.95;34.65;102653.59;5135175;27;20031;-81
2023/05/03 10:00:24;;;;;;;15.43;4.93;;;;;;;20.45;34.87;102654.16;5135859;27;20053;-79
2023/05/03 10:02:53;;;;;;;16.55;5.10;;;;;;;21.45;33.05;102655.81;5136078;27;20023;-78
2023/05/03 10:05:20;;;;;;;14.85;4.65;;;;;;;21.21;32.90;102663.25;5135768;27;20359;-78
2023/05/03 10:07:50;;;;;;;15.63;4.97;;;;;;;21.36;34.19;102658.59;5128063;27;20034;-74
2023/05/03 10:10:16;;;;;;;15.63;4.93;;;;;;;21.56;32.32;102655.69;5126539;27;20463;-79
2023/05/03 10:12:43;;;;;;;18.80;5.30;;;;;;;22.25;33.06;102654.69;5126392;27;20027;-75
2023/05/03 10:15:12;;;;;;;16.50;5.15;;;;;;;22.51;31.16;102649.81;5125578;27;20462;-71
2023/05/03 10:17:39;;;;;;;16.45;5.10;;;;;;;22.29;31.58;102648.34;5130585;27;20109;-77
2023/05/03 10:20:30;;;;;;;17.00;5.32;;;;;;;23.09;32.05;102653.22;5136778;27;20034;-78
2023/05/03 10:23:04;;;;;;;16.13;5.15;;;;;;;23.61;31.63;102657.56;5126696;27;20027;-74
2023/05/03 10:25:31;;;;;;;17.92;5.20;;;;;;;23.92;29.40;102656.91;5123987;27;20377;-74
2023/05/03 10:28:04;;;;;;;16.48;4.95;;;;;;;24.07;30.78;102661.06;5135110;27;20370;-75
2023/05/03 10:30:31;;;;;;;16.23;5.25;;;;;;;24.91;28.45;102670.66;5134543;27;20107;-76
2023/05/03 10:32:57;;;;;;;14.75;4.88;;;;;;;25.01;27.32;102658.66;5135579;27;20055;-67
2023/05/03 10:35:28;;;;;;;15.50;4.88;;;;;;;25.15;27.46;102662.78;5135175;27;20039;-67
2023/05/03 10:37:58;;;;;;;16.43;4.83;;;;;;;25.57;26.45;102655.28;5130791;27;20023;-67
2023/05/03 10:40:40;;;;;;;17.52;4.85;;;;;;;25.68;28.17;102663.06;5131505;27;20122;-67
2023/05/03 10:43:06;;;;;;;17.13;5.20;;;;;;;25.50;27.67;102653.69;5135254;27;20118;-68
2023/05/03 10:45:32;;;;;;;14.77;4.95;;;;;;;26.00;26.39;102647.66;5135176;27;20122;-67
2023/05/03 10:48:19;;;;;;;16.48;4.80;;;;;;;25.97;27.10;102653.13;5130811;27;20031;-72
2023/05/03 10:50:46;;;;;;;15.40;4.90;;;;;;;26.02;27.32;102655.72;5129905;27;20382;-79
2023/05/03 10:53:30;;;;;;;16.23;5.15;;;;;;;26.09;27.13;102651.88;5134939;27;20066;-72
2023/05/03 10:56:06;;;;;;;16.95;5.00;;;;;;;25.62;27.63;102655.13;5132871;27;20081;-81
2023/05/03 10:58:36;;;;;;;16.38;5.00;;;;;;;26.50;26.03;102652.28;5132289;27;20041;-83
2023/05/03 11:01:05;;;;;;;15.32;4.95;;;;;;;26.75;26.23;102652.38;5132092;27;20046;-87
2023/05/03 11:03:31;;;;;;;14.82;4.90;;;;;;;26.54;25.88;102650.38;5131843;27;20376;-82
2023/05/03 11:05:57;;;;;;;17.98;5.43;;;;;;;27.00;25.49;102656.00;5134234;27;20042;-86
2023/05/03 11:08:28;;;;;;;14.60;4.70;;;;;;;26.71;25.50;102645.28;5132217;27;20088;-79
2023/05/03 11:10:58;;;;;;;15.95;4.75;;;;;;;26.87;24.93;102650.13;5134524;27;20031;-78
2023/05/03 11:13:24;;;;;;;16.05;4.97;;;;;;;26.99;25.19;102649.72;5134622;27;20030;-79
2023/05/03 11:15:54;;;;;;;15.07;5.00;;;;;;;27.43;23.78;102643.56;5134477;27;20031;-79